Terminal Aerodrome Forecast
Issued by NWS Cleveland, OH

Home | Current Version | Previous Version | Text Only | Print | Product List | Glossary On
Versions: 1 2 3 4 5 6 7 8 9 10 11 12 13 14 15 16 17 18 19 20 21 22 23 24 25 26 27 28 29 30 31 32 33 34 35 36 37 38 39 40 41 42 43 44 45 46 47 48
000
FTUS41 KCLE 220116 AAA
TAFERI
TAF AMD
KERI 220116Z 2201/2224 32008KT P6SM VCSH BKN028
     FM220300 32006KT P6SM VCSH BKN035
      TEMPO 2203/2206 BKN028
     FM220600 VRB03KT P6SM BKN035
     FM221100 15008KT P6SM SCT150
     FM222300 16019G28KT P6SM BKN200=

USA.gov is the U.S. government's official web portal to all federal, state and local government web resources and services.